sensor_id;sensor_type;location;lat;lon;timestamp;P1;durP1;ratioP1;P2;durP2;ratioP2
16407;SDS011;8313;49.894;8.084;2023-04-03T00:00:28;3.33;;;1.83;;
16407;SDS011;8313;49.894;8.084;2023-04-03T00:02:54;3.90;;;2.30;;
16407;SDS011;8313;49.894;8.084;2023-04-03T00:05:20;5.00;;;2.00;;
16407;SDS011;8313;49.894;8.084;2023-04-03T00:07:46;5.10;;;2.23;;
16407;SDS011;8313;49.894;8.084;2023-04-03T00:10:12;7.07;;;2.60;;
16407;SDS011;8313;49.894;8.084;2023-04-03T00:12:38;5.00;;;2.60;;
16407;SDS011;8313;49.894;8.084;2023-04-03T00:15:04;8.10;;;3.10;;
16407;SDS011;8313;49.894;8.084;2023-04-03T00:17:30;3.93;;;2.53;;
16407;SDS011;8313;49.894;8.084;2023-04-03T00:19:56;9.27;;;2.83;;
16407;SDS011;8313;49.894;8.084;2023-04-03T00:22:22;6.73;;;2.40;;
16407;SDS011;8313;49.894;8.084;2023-04-03T00:24:47;2.93;;;2.40;;
16407;SDS011;8313;49.894;8.084;2023-04-03T00:27:13;6.63;;;3.33;;
16407;SDS011;8313;49.894;8.084;2023-04-03T00:29:40;4.20;;;2.13;;
16407;SDS011;8313;49.894;8.084;2023-04-03T00:32:06;2.57;;;2.00;;
16407;SDS011;8313;49.894;8.084;2023-04-03T00:34:34;4.97;;;2.40;;
16407;SDS011;8313;49.894;8.084;2023-04-03T00:37:00;2.57;;;1.77;;
16407;SDS011;8313;49.894;8.084;2023-04-03T00:39:26;4.80;;;2.03;;
16407;SDS011;8313;49.894;8.084;2023-04-03T00:41:52;1.97;;;1.80;;
16407;SDS011;8313;49.894;8.084;2023-04-03T00:46:59;2.80;;;1.80;;
16407;SDS011;8313;49.894;8.084;2023-04-03T00:49:25;3.30;;;2.17;;
16407;SDS011;8313;49.894;8.084;2023-04-03T00:51:51;2.70;;;1.70;;
16407;SDS011;8313;49.894;8.084;2023-04-03T00:54:18;2.00;;;1.87;;
16407;SDS011;8313;49.894;8.084;2023-04-03T00:56:44;2.73;;;1.80;;
16407;SDS011;8313;49.894;8.084;2023-04-03T00:59:12;3.63;;;2.10;;
16407;SDS011;8313;49.894;8.084;2023-04-03T01:01:41;1.93;;;1.53;;
16407;SDS011;8313;49.894;8.084;2023-04-03T01:06:56;3.93;;;1.90;;
16407;SDS011;8313;49.894;8.084;2023-04-03T01:09:26;1.93;;;1.37;;
16407;SDS011;8313;49.894;8.084;2023-04-03T01:11:53;3.50;;;1.67;;
16407;SDS011;8313;49.894;8.084;2023-04-03T01:14:19;1.60;;;1.50;;
16407;SDS011;8313;49.894;8.084;2023-04-03T01:16:52;1.50;;;1.40;;
16407;SDS011;8313;49.894;8.084;2023-04-03T01:19:18;1.80;;;1.40;;
16407;SDS011;8313;49.894;8.084;2023-04-03T01:21:53;1.90;;;1.80;;
16407;SDS011;8313;49.894;8.084;2023-04-03T01:24:44;1.83;;;1.73;;
16407;SDS011;8313;49.894;8.084;2023-04-03T01:27:12;1.30;;;1.20;;
16407;SDS011;8313;49.894;8.084;2023-04-03T01:29:38;2.03;;;1.80;;
16407;SDS011;8313;49.894;8.084;2023-04-03T01:32:05;2.67;;;1.97;;
16407;SDS011;8313;49.894;8.084;2023-04-03T01:34:31;1.73;;;1.63;;
16407;SDS011;8313;49.894;8.084;2023-04-03T01:36:57;2.00;;;1.73;;
16407;SDS011;8313;49.894;8.084;2023-04-03T01:39:23;1.60;;;1.50;;
16407;SDS011;8313;49.894;8.084;2023-04-03T01:41:49;2.30;;;1.83;;
16407;SDS011;8313;49.894;8.084;2023-04-03T01:44:22;1.80;;;1.63;;
16407;SDS011;8313;49.894;8.084;2023-04-03T01:46:48;3.13;;;1.80;;
16407;SDS011;8313;49.894;8.084;2023-04-03T01:49:13;2.43;;;2.00;;
16407;SDS011;8313;49.894;8.084;2023-04-03T01:51:39;2.20;;;1.83;;
16407;SDS011;8313;49.894;8.084;2023-04-03T01:54:05;1.57;;;1.47;;
16407;SDS011;8313;49.894;8.084;2023-04-03T01:56:30;4.10;;;1.57;;
16407;SDS011;8313;49.894;8.084;2023-04-03T01:58:56;1.93;;;1.73;;
16407;SDS011;8313;49.894;8.084;2023-04-03T02:01:22;2.43;;;1.47;;
16407;SDS011;8313;49.894;8.084;2023-04-03T02:03:48;4.67;;;1.87;;
16407;SDS011;8313;49.894;8.084;2023-04-03T02:06:14;4.40;;;1.40;;
16407;SDS011;8313;49.894;8.084;2023-04-03T02:08:40;1.77;;;1.63;;
16407;SDS011;8313;49.894;8.084;2023-04-03T02:11:06;1.63;;;1.30;;
16407;SDS011;8313;49.894;8.084;2023-04-03T02:13:32;1.63;;;1.50;;
16407;SDS011;8313;49.894;8.084;2023-04-03T02:15:58;1.87;;;1.10;;
16407;SDS011;8313;49.894;8.084;2023-04-03T02:18:24;2.10;;;1.47;;
16407;SDS011;8313;49.894;8.084;2023-04-03T02:20:50;1.57;;;1.30;;
16407;SDS011;8313;49.894;8.084;2023-04-03T02:23:15;2.73;;;1.83;;
16407;SDS011;8313;49.894;8.084;2023-04-03T02:25:41;3.07;;;1.20;;
16407;SDS011;8313;49.894;8.084;2023-04-03T02:28:07;2.60;;;1.70;;
16407;SDS011;8313;49.894;8.084;2023-04-03T02:30:32;1.30;;;1.20;;
16407;SDS011;8313;49.894;8.084;2023-04-03T02:32:58;1.60;;;1.50;;
16407;SDS011;8313;49.894;8.084;2023-04-03T02:35:25;1.83;;;1.50;;
16407;SDS011;8313;49.894;8.084;2023-04-03T02:37:52;3.47;;;1.73;;
16407;SDS011;8313;49.894;8.084;2023-04-03T02:40:18;2.17;;;1.53;;
16407;SDS011;8313;49.894;8.084;2023-04-03T02:42:43;1.43;;;1.20;;
16407;SDS011;8313;49.894;8.084;2023-04-03T02:45:10;2.60;;;1.77;;
16407;SDS011;8313;49.894;8.084;2023-04-03T02:47:35;2.30;;;1.60;;
16407;SDS011;8313;49.894;8.084;2023-04-03T02:50:01;1.40;;;1.30;;
16407;SDS011;8313;49.894;8.084;2023-04-03T02:52:27;1.47;;;1.30;;
16407;SDS011;8313;49.894;8.084;2023-04-03T02:54:55;1.37;;;1.27;;
16407;SDS011;8313;49.894;8.084;2023-04-03T02:57:21;3.07;;;1.63;;
16407;SDS011;8313;49.894;8.084;2023-04-03T02:59:47;4.10;;;1.93;;
16407;SDS011;8313;49.894;8.084;2023-04-03T03:02:13;1.70;;;1.43;;
16407;SDS011;8313;49.894;8.084;2023-04-03T03:04:38;1.73;;;1.20;;
16407;SDS011;8313;49.894;8.084;2023-04-03T03:07:04;1.50;;;1.40;;
16407;SDS011;8313;49.894;8.084;2023-04-03T03:09:30;1.53;;;1.00;;
16407;SDS011;8313;49.894;8.084;2023-04-03T03:11:57;3.37;;;1.47;;
16407;SDS011;8313;49.894;8.084;2023-04-03T03:14:23;1.63;;;1.30;;
16407;SDS011;8313;49.894;8.084;2023-04-03T03:16:49;1.60;;;1.50;;
16407;SDS011;8313;49.894;8.084;2023-04-03T03:19:14;5.80;;;1.43;;
16407;SDS011;8313;49.894;8.084;2023-04-03T03:21:40;1.20;;;1.20;;
16407;SDS011;8313;49.894;8.084;2023-04-03T03:24:06;1.53;;;1.40;;
16407;SDS011;8313;49.894;8.084;2023-04-03T03:26:32;1.70;;;1.60;;
16407;SDS011;8313;49.894;8.084;2023-04-03T03:28:57;1.40;;;1.30;;
16407;SDS011;8313;49.894;8.084;2023-04-03T03:31:23;1.80;;;1.37;;
16407;SDS011;8313;49.894;8.084;2023-04-03T03:33:49;1.30;;;1.20;;
16407;SDS011;8313;49.894;8.084;2023-04-03T03:36:15;2.73;;;1.80;;
16407;SDS011;8313;49.894;8.084;2023-04-03T03:38:40;1.93;;;1.83;;
16407;SDS011;8313;49.894;8.084;2023-04-03T03:41:08;1.80;;;1.70;;
16407;SDS011;8313;49.894;8.084;2023-04-03T03:43:34;2.50;;;1.70;;
16407;SDS011;8313;49.894;8.084;2023-04-03T03:46:01;1.37;;;1.10;;
16407;SDS011;8313;49.894;8.084;2023-04-03T03:48:27;2.00;;;1.80;;
16407;SDS011;8313;49.894;8.084;2023-04-03T03:50:53;1.23;;;1.13;;
16407;SDS011;8313;49.894;8.084;2023-04-03T03:53:22;1.80;;;1.40;;
16407;SDS011;8313;49.894;8.084;2023-04-03T03:55:51;1.53;;;1.40;;
16407;SDS011;8313;49.894;8.084;2023-04-03T03:58:19;1.20;;;1.13;;
16407;SDS011;8313;49.894;8.084;2023-04-03T04:00:46;2.17;;;1.13;;
16407;SDS011;8313;49.894;8.084;2023-04-03T04:03:12;6.70;;;1.70;;
16407;SDS011;8313;49.894;8.084;2023-04-03T04:05:38;2.00;;;1.20;;
16407;SDS011;8313;49.894;8.084;2023-04-03T04:08:04;2.60;;;1.20;;
16407;SDS011;8313;49.894;8.084;2023-04-03T04:10:30;2.33;;;1.43;;
16407;SDS011;8313;49.894;8.084;2023-04-03T04:12:56;2.00;;;1.37;;
16407;SDS011;8313;49.894;8.084;2023-04-03T04:15:24;2.27;;;1.30;;
16407;SDS011;8313;49.894;8.084;2023-04-03T04:17:51;1.43;;;1.30;;
16407;SDS011;8313;49.894;8.084;2023-04-03T04:20:18;1.80;;;1.40;;
16407;SDS011;8313;49.894;8.084;2023-04-03T04:22:45;1.27;;;1.17;;
16407;SDS011;8313;49.894;8.084;2023-04-03T04:25:11;1.23;;;1.03;;
16407;SDS011;8313;49.894;8.084;2023-04-03T04:27:38;7.50;;;1.83;;
16407;SDS011;8313;49.894;8.084;2023-04-03T04:30:05;1.27;;;1.20;;
16407;SDS011;8313;49.894;8.084;2023-04-03T04:32:32;1.83;;;1.10;;
16407;SDS011;8313;49.894;8.084;2023-04-03T04:34:58;1.43;;;1.30;;
16407;SDS011;8313;49.894;8.084;2023-04-03T04:37:24;1.17;;;1.03;;
16407;SDS011;8313;49.894;8.084;2023-04-03T04:39:51;1.23;;;1.10;;
16407;SDS011;8313;49.894;8.084;2023-04-03T04:42:17;2.70;;;0.90;;
16407;SDS011;8313;49.894;8.084;2023-04-03T04:44:44;4.47;;;1.20;;
16407;SDS011;8313;49.894;8.084;2023-04-03T04:47:11;3.37;;;0.80;;
16407;SDS011;8313;49.894;8.084;2023-04-03T04:49:37;4.83;;;1.40;;
16407;SDS011;8313;49.894;8.084;2023-04-03T04:52:03;1.27;;;1.10;;
16407;SDS011;8313;49.894;8.084;2023-04-03T04:54:30;1.40;;;1.03;;
16407;SDS011;8313;49.894;8.084;2023-04-03T04:56:56;1.20;;;1.10;;
16407;SDS011;8313;49.894;8.084;2023-04-03T04:59:22;1.53;;;1.00;;
16407;SDS011;8313;49.894;8.084;2023-04-03T05:01:50;4.70;;;1.83;;
16407;SDS011;8313;49.894;8.084;2023-04-03T05:04:16;2.77;;;0.83;;
16407;SDS011;8313;49.894;8.084;2023-04-03T05:06:45;4.70;;;1.70;;
16407;SDS011;8313;49.894;8.084;2023-04-03T05:09:16;3.73;;;1.30;;
16407;SDS011;8313;49.894;8.084;2023-04-03T05:11:43;2.73;;;1.20;;
16407;SDS011;8313;49.894;8.084;2023-04-03T05:14:09;3.03;;;0.97;;
16407;SDS011;8313;49.894;8.084;2023-04-03T05:16:35;2.97;;;1.83;;
16407;SDS011;8313;49.894;8.084;2023-04-03T05:19:01;1.50;;;0.80;;
16407;SDS011;8313;49.894;8.084;2023-04-03T05:21:28;2.47;;;1.23;;
16407;SDS011;8313;49.894;8.084;2023-04-03T05:23:58;1.20;;;1.10;;
16407;SDS011;8313;49.894;8.084;2023-04-03T05:26:28;2.83;;;1.00;;
16407;SDS011;8313;49.894;8.084;2023-04-03T05:28:55;2.87;;;1.20;;
16407;SDS011;8313;49.894;8.084;2023-04-03T05:31:21;4.87;;;1.17;;
16407;SDS011;8313;49.894;8.084;2023-04-03T05:33:48;1.67;;;1.07;;
16407;SDS011;8313;49.894;8.084;2023-04-03T05:36:16;2.53;;;1.07;;
16407;SDS011;8313;49.894;8.084;2023-04-03T05:38:46;2.80;;;1.17;;
16407;SDS011;8313;49.894;8.084;2023-04-03T05:41:11;1.20;;;1.10;;
16407;SDS011;8313;49.894;8.084;2023-04-03T05:43:38;1.83;;;1.30;;
16407;SDS011;8313;49.894;8.084;2023-04-03T05:46:12;7.33;;;2.30;;
16407;SDS011;8313;49.894;8.084;2023-04-03T05:48:42;1.73;;;1.63;;
16407;SDS011;8313;49.894;8.084;2023-04-03T05:51:15;1.40;;;1.30;;
16407;SDS011;8313;49.894;8.084;2023-04-03T05:53:50;1.53;;;1.20;;
16407;SDS011;8313;49.894;8.084;2023-04-03T05:56:21;2.30;;;1.20;;
16407;SDS011;8313;49.894;8.084;2023-04-03T05:58:47;2.90;;;1.40;;
16407;SDS011;8313;49.894;8.084;2023-04-03T06:01:12;4.13;;;2.00;;
16407;SDS011;8313;49.894;8.084;2023-04-03T06:03:38;2.20;;;1.37;;
16407;SDS011;8313;49.894;8.084;2023-04-03T06:06:06;2.60;;;1.70;;
16407;SDS011;8313;49.894;8.084;2023-04-03T06:08:33;2.23;;;1.47;;
16407;SDS011;8313;49.894;8.084;2023-04-03T06:10:59;0.80;;;0.80;;
16407;SDS011;8313;49.894;8.084;2023-04-03T06:13:27;0.87;;;0.87;;
16407;SDS011;8313;49.894;8.084;2023-04-03T06:15:53;0.90;;;0.90;;
16407;SDS011;8313;49.894;8.084;2023-04-03T06:18:19;3.33;;;1.50;;
16407;SDS011;8313;49.894;8.084;2023-04-03T06:20:45;1.20;;;1.13;;
16407;SDS011;8313;49.894;8.084;2023-04-03T06:23:11;7.43;;;1.57;;
16407;SDS011;8313;49.894;8.084;2023-04-03T06:25:37;1.30;;;1.20;;
16407;SDS011;8313;49.894;8.084;2023-04-03T06:28:02;2.00;;;1.60;;
16407;SDS011;8313;49.894;8.084;2023-04-03T06:30:28;2.43;;;1.63;;
16407;SDS011;8313;49.894;8.084;2023-04-03T06:32:54;2.87;;;1.53;;
16407;SDS011;8313;49.894;8.084;2023-04-03T06:35:20;1.40;;;1.20;;
16407;SDS011;8313;49.894;8.084;2023-04-03T06:37:48;2.10;;;1.60;;
16407;SDS011;8313;49.894;8.084;2023-04-03T06:40:22;1.37;;;1.27;;
16407;SDS011;8313;49.894;8.084;2023-04-03T06:42:49;1.13;;;1.03;;
16407;SDS011;8313;49.894;8.084;2023-04-03T06:45:17;1.47;;;1.37;;
16407;SDS011;8313;49.894;8.084;2023-04-03T06:47:42;1.70;;;1.50;;
16407;SDS011;8313;49.894;8.084;2023-04-03T06:50:09;1.53;;;1.40;;
16407;SDS011;8313;49.894;8.084;2023-04-03T06:52:36;3.30;;;1.90;;
16407;SDS011;8313;49.894;8.084;2023-04-03T06:55:02;1.37;;;1.00;;
16407;SDS011;8313;49.894;8.084;2023-04-03T06:57:29;4.30;;;1.30;;
16407;SDS011;8313;49.894;8.084;2023-04-03T06:59:55;4.27;;;1.80;;
16407;SDS011;8313;49.894;8.084;2023-04-03T07:02:20;3.13;;;1.67;;
16407;SDS011;8313;49.894;8.084;2023-04-03T07:04:46;4.50;;;1.13;;
16407;SDS011;8313;49.894;8.084;2023-04-03T07:07:12;2.33;;;1.67;;
16407;SDS011;8313;49.894;8.084;2023-04-03T07:09:38;3.00;;;1.67;;
16407;SDS011;8313;49.894;8.084;2023-04-03T07:12:04;2.27;;;1.50;;
16407;SDS011;8313;49.894;8.084;2023-04-03T07:14:30;1.47;;;1.30;;
16407;SDS011;8313;49.894;8.084;2023-04-03T07:16:56;2.30;;;1.70;;
16407;SDS011;8313;49.894;8.084;2023-04-03T07:19:21;2.93;;;1.40;;
16407;SDS011;8313;49.894;8.084;2023-04-03T07:21:49;5.17;;;2.20;;
16407;SDS011;8313;49.894;8.084;2023-04-03T07:24:15;6.13;;;2.33;;
16407;SDS011;8313;49.894;8.084;2023-04-03T07:26:41;1.60;;;1.33;;
16407;SDS011;8313;49.894;8.084;2023-04-03T07:29:06;2.20;;;1.60;;
16407;SDS011;8313;49.894;8.084;2023-04-03T07:31:32;4.60;;;1.70;;
16407;SDS011;8313;49.894;8.084;2023-04-03T07:33:58;1.20;;;1.10;;
16407;SDS011;8313;49.894;8.084;2023-04-03T07:36:24;2.07;;;1.80;;
16407;SDS011;8313;49.894;8.084;2023-04-03T07:38:50;2.40;;;1.80;;
16407;SDS011;8313;49.894;8.084;2023-04-03T07:41:16;2.27;;;1.90;;
16407;SDS011;8313;49.894;8.084;2023-04-03T07:43:45;3.30;;;1.90;;
16407;SDS011;8313;49.894;8.084;2023-04-03T07:46:12;2.23;;;2.00;;
16407;SDS011;8313;49.894;8.084;2023-04-03T07:48:38;2.87;;;1.90;;
16407;SDS011;8313;49.894;8.084;2023-04-03T07:51:04;2.20;;;1.80;;
16407;SDS011;8313;49.894;8.084;2023-04-03T07:53:30;2.23;;;2.00;;
16407;SDS011;8313;49.894;8.084;2023-04-03T07:55:57;5.07;;;1.70;;
16407;SDS011;8313;49.894;8.084;2023-04-03T07:58:24;2.00;;;1.77;;
16407;SDS011;8313;49.894;8.084;2023-04-03T08:00:50;2.10;;;1.73;;
16407;SDS011;8313;49.894;8.084;2023-04-03T08:03:16;3.77;;;1.43;;
16407;SDS011;8313;49.894;8.084;2023-04-03T08:05:46;2.60;;;1.50;;
16407;SDS011;8313;49.894;8.084;2023-04-03T08:08:13;2.20;;;1.50;;
16407;SDS011;8313;49.894;8.084;2023-04-03T08:10:41;2.20;;;1.40;;
16407;SDS011;8313;49.894;8.084;2023-04-03T08:13:07;3.40;;;1.70;;
16407;SDS011;8313;49.894;8.084;2023-04-03T08:15:33;1.63;;;1.47;;
16407;SDS011;8313;49.894;8.084;2023-04-03T08:18:00;1.40;;;1.30;;
16407;SDS011;8313;49.894;8.084;2023-04-03T08:20:26;3.47;;;1.53;;
16407;SDS011;8313;49.894;8.084;2023-04-03T08:22:52;1.50;;;1.40;;
16407;SDS011;8313;49.894;8.084;2023-04-03T08:25:18;2.13;;;1.87;;
16407;SDS011;8313;49.894;8.084;2023-04-03T08:27:44;2.77;;;1.80;;
16407;SDS011;8313;49.894;8.084;2023-04-03T08:30:10;3.93;;;1.83;;
16407;SDS011;8313;49.894;8.084;2023-04-03T08:32:36;2.27;;;1.73;;
16407;SDS011;8313;49.894;8.084;2023-04-03T08:35:03;2.10;;;1.63;;
16407;SDS011;8313;49.894;8.084;2023-04-03T08:37:29;2.60;;;1.60;;
16407;SDS011;8313;49.894;8.084;2023-04-03T08:39:55;4.83;;;2.43;;
16407;SDS011;8313;49.894;8.084;2023-04-03T08:45:37;3.03;;;1.90;;
16407;SDS011;8313;49.894;8.084;2023-04-03T08:48:19;1.47;;;1.37;;
16407;SDS011;8313;49.894;8.084;2023-04-03T08:50:53;4.50;;;2.10;;
16407;SDS011;8313;49.894;8.084;2023-04-03T08:53:23;2.50;;;1.90;;
16407;SDS011;8313;49.894;8.084;2023-04-03T08:55:53;2.87;;;1.40;;
16407;SDS011;8313;49.894;8.084;2023-04-03T08:58:30;3.37;;;1.80;;
16407;SDS011;8313;49.894;8.084;2023-04-03T09:01:02;1.63;;;1.40;;
16407;SDS011;8313;49.894;8.084;2023-04-03T09:03:31;3.80;;;2.23;;
16407;SDS011;8313;49.894;8.084;2023-04-03T09:06:07;4.10;;;1.90;;
16407;SDS011;8313;49.894;8.084;2023-04-03T09:11:18;2.80;;;1.90;;
16407;SDS011;8313;49.894;8.084;2023-04-03T09:14:08;2.60;;;2.10;;
16407;SDS011;8313;49.894;8.084;2023-04-03T09:21:50;5.90;;;1.93;;
16407;SDS011;8313;49.894;8.084;2023-04-03T09:24:15;1.40;;;1.30;;
16407;SDS011;8313;49.894;8.084;2023-04-03T09:29:19;2.17;;;1.87;;
16407;SDS011;8313;49.894;8.084;2023-04-03T09:32:31;1.93;;;1.70;;
16407;SDS011;8313;49.894;8.084;2023-04-03T09:34:59;2.90;;;1.60;;
16407;SDS011;8313;49.894;8.084;2023-04-03T09:37:36;2.17;;;2.00;;
16407;SDS011;8313;49.894;8.084;2023-04-03T09:40:02;3.33;;;2.00;;
16407;SDS011;8313;49.894;8.084;2023-04-03T09:42:29;2.80;;;1.87;;
16407;SDS011;8313;49.894;8.084;2023-04-03T09:45:02;3.53;;;1.97;;
16407;SDS011;8313;49.894;8.084;2023-04-03T09:52:42;3.13;;;2.03;;
16407;SDS011;8313;49.894;8.084;2023-04-03T09:55:16;2.30;;;1.97;;
16407;SDS011;8313;49.894;8.084;2023-04-03T09:57:47;2.97;;;1.70;;
16407;SDS011;8313;49.894;8.084;2023-04-03T10:00:25;1.87;;;1.57;;
16407;SDS011;8313;49.894;8.084;2023-04-03T10:03:05;2.97;;;1.80;;
16407;SDS011;8313;49.894;8.084;2023-04-03T10:05:51;5.43;;;2.07;;
16407;SDS011;8313;49.894;8.084;2023-04-03T10:08:20;2.10;;;1.87;;
16407;SDS011;8313;49.894;8.084;2023-04-03T10:11:04;1.80;;;1.70;;
16407;SDS011;8313;49.894;8.084;2023-04-03T10:14:16;2.33;;;1.63;;
16407;SDS011;8313;49.894;8.084;2023-04-03T10:16:41;3.93;;;1.73;;
16407;SDS011;8313;49.894;8.084;2023-04-03T10:19:17;2.07;;;1.87;;
16407;SDS011;8313;49.894;8.084;2023-04-03T10:22:01;1.80;;;1.70;;
16407;SDS011;8313;49.894;8.084;2023-04-03T10:27:31;6.27;;;1.80;;
16407;SDS011;8313;49.894;8.084;2023-04-03T10:41:32;2.47;;;2.00;;
16407;SDS011;8313;49.894;8.084;2023-04-03T10:49:44;3.50;;;2.80;;
16407;SDS011;8313;49.894;8.084;2023-04-03T10:52:23;5.47;;;1.90;;
16407;SDS011;8313;49.894;8.084;2023-04-03T10:58:06;2.20;;;2.00;;
16407;SDS011;8313;49.894;8.084;2023-04-03T11:01:00;4.77;;;1.97;;
16407;SDS011;8313;49.894;8.084;2023-04-03T11:03:33;2.90;;;2.60;;
16407;SDS011;8313;49.894;8.084;2023-04-03T11:06:06;2.97;;;2.20;;
16407;SDS011;8313;49.894;8.084;2023-04-03T11:08:36;2.53;;;1.83;;
16407;SDS011;8313;49.894;8.084;2023-04-03T11:11:21;2.40;;;2.03;;
16407;SDS011;8313;49.894;8.084;2023-04-03T11:16:42;2.67;;;2.47;;
16407;SDS011;8313;49.894;8.084;2023-04-03T11:21:48;3.47;;;2.07;;
16407;SDS011;8313;49.894;8.084;2023-04-03T11:24:23;2.70;;;1.83;;
16407;SDS011;8313;49.894;8.084;2023-04-03T11:26:52;1.50;;;1.40;;
16407;SDS011;8313;49.894;8.084;2023-04-03T11:29:20;2.13;;;1.87;;
16407;SDS011;8313;49.894;8.084;2023-04-03T11:34:52;3.30;;;2.10;;
16407;SDS011;8313;49.894;8.084;2023-04-03T11:37:27;2.80;;;2.60;;
16407;SDS011;8313;49.894;8.084;2023-04-03T11:40:03;2.20;;;1.50;;
16407;SDS011;8313;49.894;8.084;2023-04-03T11:42:36;2.30;;;1.70;;
16407;SDS011;8313;49.894;8.084;2023-04-03T11:47:52;2.60;;;1.67;;
16407;SDS011;8313;49.894;8.084;2023-04-03T11:53:25;8.03;;;1.97;;
16407;SDS011;8313;49.894;8.084;2023-04-03T11:56:27;2.60;;;2.03;;
16407;SDS011;8313;49.894;8.084;2023-04-03T12:01:50;3.03;;;2.47;;
16407;SDS011;8313;49.894;8.084;2023-04-03T12:04:17;4.20;;;1.63;;
16407;SDS011;8313;49.894;8.084;2023-04-03T12:12:23;2.10;;;1.70;;
16407;SDS011;8313;49.894;8.084;2023-04-03T12:14:49;3.33;;;2.10;;
16407;SDS011;8313;49.894;8.084;2023-04-03T12:17:20;2.63;;;2.00;;
16407;SDS011;8313;49.894;8.084;2023-04-03T12:19:52;2.30;;;2.10;;
16407;SDS011;8313;49.894;8.084;2023-04-03T12:22:18;3.07;;;2.50;;
16407;SDS011;8313;49.894;8.084;2023-04-03T12:24:52;2.43;;;2.33;;
16407;SDS011;8313;49.894;8.084;2023-04-03T12:30:12;5.67;;;3.07;;
16407;SDS011;8313;49.894;8.084;2023-04-03T12:32:48;2.70;;;2.17;;
16407;SDS011;8313;49.894;8.084;2023-04-03T12:38:14;2.83;;;2.50;;
16407;SDS011;8313;49.894;8.084;2023-04-03T12:46:51;2.50;;;2.30;;
16407;SDS011;8313;49.894;8.084;2023-04-03T12:49:30;2.63;;;2.20;;
16407;SDS011;8313;49.894;8.084;2023-04-03T12:55:17;2.93;;;2.53;;
16407;SDS011;8313;49.894;8.084;2023-04-03T12:57:46;2.47;;;2.20;;
16407;SDS011;8313;49.894;8.084;2023-04-03T13:00:19;1.93;;;1.83;;
16407;SDS011;8313;49.894;8.084;2023-04-03T13:03:04;3.13;;;2.23;;
16407;SDS011;8313;49.894;8.084;2023-04-03T13:05:39;3.57;;;2.10;;
16407;SDS011;8313;49.894;8.084;2023-04-03T13:08:10;2.97;;;1.77;;
16407;SDS011;8313;49.894;8.084;2023-04-03T13:10:47;3.63;;;1.90;;
16407;SDS011;8313;49.894;8.084;2023-04-03T13:13:18;4.60;;;2.30;;
16407;SDS011;8313;49.894;8.084;2023-04-03T13:15:45;3.90;;;2.30;;
16407;SDS011;8313;49.894;8.084;2023-04-03T13:18:24;9.33;;;3.80;;
16407;SDS011;8313;49.894;8.084;2023-04-03T13:21:02;6.47;;;2.93;;
16407;SDS011;8313;49.894;8.084;2023-04-03T13:23:31;7.20;;;2.57;;
16407;SDS011;8313;49.894;8.084;2023-04-03T13:26:00;2.23;;;2.03;;
16407;SDS011;8313;49.894;8.084;2023-04-03T13:28:28;5.17;;;2.40;;
16407;SDS011;8313;49.894;8.084;2023-04-03T13:31:03;2.83;;;2.53;;
16407;SDS011;8313;49.894;8.084;2023-04-03T13:33:39;2.90;;;2.20;;
16407;SDS011;8313;49.894;8.084;2023-04-03T13:36:18;4.30;;;2.63;;
16407;SDS011;8313;49.894;8.084;2023-04-03T13:38:57;2.97;;;2.57;;
16407;SDS011;8313;49.894;8.084;2023-04-03T13:46:48;3.00;;;2.20;;
16407;SDS011;8313;49.894;8.084;2023-04-03T13:49:35;3.70;;;2.50;;
16407;SDS011;8313;49.894;8.084;2023-04-03T13:55:18;4.80;;;2.10;;
16407;SDS011;8313;49.894;8.084;2023-04-03T13:57:57;3.07;;;2.30;;
16407;SDS011;8313;49.894;8.084;2023-04-03T14:00:33;3.93;;;2.90;;
16407;SDS011;8313;49.894;8.084;2023-04-03T14:03:02;3.43;;;2.70;;
16407;SDS011;8313;49.894;8.084;2023-04-03T14:05:36;2.80;;;2.30;;
16407;SDS011;8313;49.894;8.084;2023-04-03T14:08:02;2.63;;;2.43;;
16407;SDS011;8313;49.894;8.084;2023-04-03T14:10:28;6.47;;;2.83;;
16407;SDS011;8313;49.894;8.084;2023-04-03T14:12:55;2.70;;;2.50;;
16407;SDS011;8313;49.894;8.084;2023-04-03T14:15:22;3.07;;;2.43;;
16407;SDS011;8313;49.894;8.084;2023-04-03T14:17:51;4.73;;;2.47;;
16407;SDS011;8313;49.894;8.084;2023-04-03T14:20:19;4.30;;;2.60;;
16407;SDS011;8313;49.894;8.084;2023-04-03T14:22:47;4.13;;;2.50;;
16407;SDS011;8313;49.894;8.084;2023-04-03T14:25:13;3.70;;;2.50;;
16407;SDS011;8313;49.894;8.084;2023-04-03T14:27:42;4.10;;;2.23;;
16407;SDS011;8313;49.894;8.084;2023-04-03T14:30:16;3.07;;;2.40;;
16407;SDS011;8313;49.894;8.084;2023-04-03T14:32:48;2.90;;;2.60;;
16407;SDS011;8313;49.894;8.084;2023-04-03T14:35:14;7.60;;;2.47;;
16407;SDS011;8313;49.894;8.084;2023-04-03T14:37:40;6.80;;;2.90;;
16407;SDS011;8313;49.894;8.084;2023-04-03T14:40:07;2.50;;;2.30;;
16407;SDS011;8313;49.894;8.084;2023-04-03T14:42:37;2.83;;;2.17;;
16407;SDS011;8313;49.894;8.084;2023-04-03T14:45:04;2.57;;;2.37;;
16407;SDS011;8313;49.894;8.084;2023-04-03T14:47:31;2.40;;;2.20;;
16407;SDS011;8313;49.894;8.084;2023-04-03T14:50:01;2.73;;;2.20;;
16407;SDS011;8313;49.894;8.084;2023-04-03T14:52:30;7.57;;;2.53;;
16407;SDS011;8313;49.894;8.084;2023-04-03T14:54:58;5.10;;;2.63;;
16407;SDS011;8313;49.894;8.084;2023-04-03T14:57:26;5.37;;;2.67;;
16407;SDS011;8313;49.894;8.084;2023-04-03T14:59:54;5.83;;;3.50;;
16407;SDS011;8313;49.894;8.084;2023-04-03T15:02:33;2.77;;;2.07;;
16407;SDS011;8313;49.894;8.084;2023-04-03T15:05:00;6.33;;;3.10;;
16407;SDS011;8313;49.894;8.084;2023-04-03T15:07:29;2.57;;;1.97;;
16407;SDS011;8313;49.894;8.084;2023-04-03T15:10:15;2.90;;;2.23;;
16407;SDS011;8313;49.894;8.084;2023-04-03T15:12:44;1.90;;;1.80;;
16407;SDS011;8313;49.894;8.084;2023-04-03T15:15:10;2.00;;;1.80;;
16407;SDS011;8313;49.894;8.084;2023-04-03T15:17:36;2.40;;;2.10;;
16407;SDS011;8313;49.894;8.084;2023-04-03T15:20:02;4.33;;;2.23;;
16407;SDS011;8313;49.894;8.084;2023-04-03T15:22:31;4.57;;;2.33;;
16407;SDS011;8313;49.894;8.084;2023-04-03T15:24:56;4.00;;;2.60;;
16407;SDS011;8313;49.894;8.084;2023-04-03T15:27:22;3.10;;;2.17;;
16407;SDS011;8313;49.894;8.084;2023-04-03T15:29:48;2.70;;;2.10;;
16407;SDS011;8313;49.894;8.084;2023-04-03T15:32:13;1.90;;;1.80;;
16407;SDS011;8313;49.894;8.084;2023-04-03T15:34:39;3.07;;;1.73;;
16407;SDS011;8313;49.894;8.084;2023-04-03T15:37:06;2.10;;;1.90;;
16407;SDS011;8313;49.894;8.084;2023-04-03T15:39:31;7.60;;;2.70;;
16407;SDS011;8313;49.894;8.084;2023-04-03T15:41:57;3.50;;;2.20;;
16407;SDS011;8313;49.894;8.084;2023-04-03T15:44:31;3.00;;;2.03;;
16407;SDS011;8313;49.894;8.084;2023-04-03T15:46:58;3.37;;;2.50;;
16407;SDS011;8313;49.894;8.084;2023-04-03T15:49:24;2.23;;;1.93;;
16407;SDS011;8313;49.894;8.084;2023-04-03T15:51:51;2.40;;;1.77;;
16407;SDS011;8313;49.894;8.084;2023-04-03T15:54:17;2.27;;;2.00;;
16407;SDS011;8313;49.894;8.084;2023-04-03T15:56:43;4.30;;;2.60;;
16407;SDS011;8313;49.894;8.084;2023-04-03T15:59:09;3.17;;;2.30;;
16407;SDS011;8313;49.894;8.084;2023-04-03T16:01:35;2.47;;;2.13;;
16407;SDS011;8313;49.894;8.084;2023-04-03T16:04:01;3.23;;;1.80;;
16407;SDS011;8313;49.894;8.084;2023-04-03T16:06:27;2.10;;;1.53;;
16407;SDS011;8313;49.894;8.084;2023-04-03T16:08:55;5.20;;;2.53;;
16407;SDS011;8313;49.894;8.084;2023-04-03T16:11:23;5.73;;;2.33;;
16407;SDS011;8313;49.894;8.084;2023-04-03T16:13:51;3.00;;;1.70;;
16407;SDS011;8313;49.894;8.084;2023-04-03T16:16:16;2.40;;;1.80;;
16407;SDS011;8313;49.894;8.084;2023-04-03T16:18:42;1.40;;;1.30;;
16407;SDS011;8313;49.894;8.084;2023-04-03T16:21:08;3.13;;;2.13;;
16407;SDS011;8313;49.894;8.084;2023-04-03T16:23:35;2.10;;;1.80;;
16407;SDS011;8313;49.894;8.084;2023-04-03T16:26:00;1.43;;;1.33;;
16407;SDS011;8313;49.894;8.084;2023-04-03T16:28:26;2.40;;;1.40;;
16407;SDS011;8313;49.894;8.084;2023-04-03T16:30:52;2.53;;;1.73;;
16407;SDS011;8313;49.894;8.084;2023-04-03T16:33:18;1.97;;;1.60;;
16407;SDS011;8313;49.894;8.084;2023-04-03T16:35:46;2.30;;;1.10;;
16407;SDS011;8313;49.894;8.084;2023-04-03T16:38:13;2.53;;;1.40;;
16407;SDS011;8313;49.894;8.084;2023-04-03T16:40:40;1.30;;;1.20;;
16407;SDS011;8313;49.894;8.084;2023-04-03T16:43:06;1.90;;;1.60;;